sensor_id;sensor_type;location;lat;lon;timestamp;temperature;humidity
7192;DHT22;3637;51.494;11.958;2023-02-10T00:02:15;1.10;99.90
7192;DHT22;3637;51.494;11.958;2023-02-10T00:05:17;1.30;99.90
7192;DHT22;3637;51.494;11.958;2023-02-10T00:08:20;1.00;99.90
7192;DHT22;3637;51.494;11.958;2023-02-10T00:11:22;1.00;99.90
7192;DHT22;3637;51.494;11.958;2023-02-10T00:14:44;1.10;99.90
7192;DHT22;3637;51.494;11.958;2023-02-10T00:17:46;1.10;99.90
7192;DHT22;3637;51.494;11.958;2023-02-10T00:20:48;1.20;99.90
7192;DHT22;3637;51.494;11.958;2023-02-10T00:23:52;1.10;99.90
7192;DHT22;3637;51.494;11.958;2023-02-10T00:26:54;1.10;99.90
7192;DHT22;3637;51.494;11.958;2023-02-10T00:29:55;1.20;99.90
7192;DHT22;3637;51.494;11.958;2023-02-10T00:32:58;2.40;99.90
7192;DHT22;3637;51.494;11.958;2023-02-10T00:36:03;1.20;99.90
7192;DHT22;3637;51.494;11.958;2023-02-10T00:39:07;1.20;99.90
7192;DHT22;3637;51.494;11.958;2023-02-10T00:42:09;2.60;99.90
7192;DHT22;3637;51.494;11.958;2023-02-10T00:45:10;1.30;99.90
7192;DHT22;3637;51.494;11.958;2023-02-10T00:48:12;1.30;99.90
7192;DHT22;3637;51.494;11.958;2023-02-10T00:51:15;2.40;99.90
7192;DHT22;3637;51.494;11.958;2023-02-10T00:54:18;1.40;99.90
7192;DHT22;3637;51.494;11.958;2023-02-10T00:57:20;1.40;99.90
7192;DHT22;3637;51.494;11.958;2023-02-10T01:00:22;1.40;99.90
7192;DHT22;3637;51.494;11.958;2023-02-10T01:03:24;1.50;99.90
7192;DHT22;3637;51.494;11.958;2023-02-10T01:06:26;2.20;99.90
7192;DHT22;3637;51.494;11.958;2023-02-10T01:09:29;1.30;99.90
7192;DHT22;3637;51.494;11.958;2023-02-10T01:12:31;1.60;99.90
7192;DHT22;3637;51.494;11.958;2023-02-10T01:15:33;2.70;99.90
7192;DHT22;3637;51.494;11.958;2023-02-10T01:18:35;1.80;99.90
7192;DHT22;3637;51.494;11.958;2023-02-10T01:21:37;1.80;99.90
7192;DHT22;3637;51.494;11.958;2023-02-10T01:24:40;2.10;99.90
7192;DHT22;3637;51.494;11.958;2023-02-10T01:27:42;1.80;99.90
7192;DHT22;3637;51.494;11.958;2023-02-10T01:30:44;1.80;99.90
7192;DHT22;3637;51.494;11.958;2023-02-10T01:33:46;1.90;99.90
7192;DHT22;3637;51.494;11.958;2023-02-10T01:36:51;1.80;99.90
7192;DHT22;3637;51.494;11.958;2023-02-10T01:39:54;3.10;99.90
7192;DHT22;3637;51.494;11.958;2023-02-10T01:42:56;1.90;99.90
7192;DHT22;3637;51.494;11.958;2023-02-10T01:45:58;1.90;99.90
7192;DHT22;3637;51.494;11.958;2023-02-10T01:49:05;1.90;99.90
7192;DHT22;3637;51.494;11.958;2023-02-10T01:52:13;1.90;99.90
7192;DHT22;3637;51.494;11.958;2023-02-10T01:55:21;1.90;99.90
7192;DHT22;3637;51.494;11.958;2023-02-10T01:58:27;1.80;99.90
7192;DHT22;3637;51.494;11.958;2023-02-10T02:01:30;1.80;99.90
7192;DHT22;3637;51.494;11.958;2023-02-10T02:04:33;1.80;99.90
7192;DHT22;3637;51.494;11.958;2023-02-10T02:07:36;1.90;99.90
7192;DHT22;3637;51.494;11.958;2023-02-10T02:11:00;1.80;99.90
7192;DHT22;3637;51.494;11.958;2023-02-10T02:14:21;1.90;99.90
7192;DHT22;3637;51.494;11.958;2023-02-10T02:17:30;2.00;99.90
7192;DHT22;3637;51.494;11.958;2023-02-10T02:20:45;2.10;99.90
7192;DHT22;3637;51.494;11.958;2023-02-10T02:24:01;2.00;99.90
7192;DHT22;3637;51.494;11.958;2023-02-10T02:27:31;2.40;99.90
7192;DHT22;3637;51.494;11.958;2023-02-10T02:30:52;2.10;99.90
7192;DHT22;3637;51.494;11.958;2023-02-10T02:34:01;2.10;99.90
7192;DHT22;3637;51.494;11.958;2023-02-10T02:37:08;2.20;99.90
7192;DHT22;3637;51.494;11.958;2023-02-10T02:40:14;2.10;99.90
7192;DHT22;3637;51.494;11.958;2023-02-10T02:43:17;2.00;99.90
7192;DHT22;3637;51.494;11.958;2023-02-10T02:46:29;2.00;99.90
7192;DHT22;3637;51.494;11.958;2023-02-10T02:49:41;2.00;99.90
7192;DHT22;3637;51.494;11.958;2023-02-10T02:53:04;2.00;99.90
7192;DHT22;3637;51.494;11.958;2023-02-10T02:56:15;2.30;99.90
7192;DHT22;3637;51.494;11.958;2023-02-10T02:59:23;1.90;99.90
7192;DHT22;3637;51.494;11.958;2023-02-10T03:02:28;1.90;99.90
7192;DHT22;3637;51.494;11.958;2023-02-10T03:05:32;1.90;99.90
7192;DHT22;3637;51.494;11.958;2023-02-10T03:08:37;1.90;99.90
7192;DHT22;3637;51.494;11.958;2023-02-10T03:11:39;2.00;99.90
7192;DHT22;3637;51.494;11.958;2023-02-10T03:14:41;1.70;99.90
7192;DHT22;3637;51.494;11.958;2023-02-10T03:17:43;1.70;99.90
7192;DHT22;3637;51.494;11.958;2023-02-10T03:20:46;1.70;99.90
7192;DHT22;3637;51.494;11.958;2023-02-10T03:23:48;1.80;99.90
7192;DHT22;3637;51.494;11.958;2023-02-10T03:26:50;1.90;99.90
7192;DHT22;3637;51.494;11.958;2023-02-10T03:29:52;1.80;99.90
7192;DHT22;3637;51.494;11.958;2023-02-10T03:32:54;1.90;99.90
7192;DHT22;3637;51.494;11.958;2023-02-10T03:35:57;1.90;99.90
7192;DHT22;3637;51.494;11.958;2023-02-10T03:38:59;1.80;99.90
7192;DHT22;3637;51.494;11.958;2023-02-10T03:42:01;2.30;99.90
7192;DHT22;3637;51.494;11.958;2023-02-10T03:45:03;1.90;99.90
7192;DHT22;3637;51.494;11.958;2023-02-10T03:48:05;1.90;99.90
7192;DHT22;3637;51.494;11.958;2023-02-10T03:51:10;2.50;99.90
7192;DHT22;3637;51.494;11.958;2023-02-10T03:54:12;1.90;99.90
7192;DHT22;3637;51.494;11.958;2023-02-10T03:57:14;2.00;99.90
7192;DHT22;3637;51.494;11.958;2023-02-10T04:00:16;2.00;99.90
7192;DHT22;3637;51.494;11.958;2023-02-10T04:03:18;2.70;99.90
7192;DHT22;3637;51.494;11.958;2023-02-10T04:06:22;2.10;99.90
7192;DHT22;3637;51.494;11.958;2023-02-10T04:09:23;2.10;99.90
7192;DHT22;3637;51.494;11.958;2023-02-10T04:12:25;2.10;99.90
7192;DHT22;3637;51.494;11.958;2023-02-10T04:15:27;2.10;99.90
7192;DHT22;3637;51.494;11.958;2023-02-10T04:18:29;2.10;99.90
7192;DHT22;3637;51.494;11.958;2023-02-10T04:21:32;2.20;99.90
7192;DHT22;3637;51.494;11.958;2023-02-10T04:24:34;3.50;99.90
7192;DHT22;3637;51.494;11.958;2023-02-10T04:27:36;2.20;99.90
7192;DHT22;3637;51.494;11.958;2023-02-10T04:30:38;2.20;99.90
7192;DHT22;3637;51.494;11.958;2023-02-10T04:33:40;2.20;99.90
7192;DHT22;3637;51.494;11.958;2023-02-10T04:36:43;2.40;99.90
7192;DHT22;3637;51.494;11.958;2023-02-10T04:39:45;1.90;99.90
7192;DHT22;3637;51.494;11.958;2023-02-10T04:42:46;2.20;99.90
7192;DHT22;3637;51.494;11.958;2023-02-10T04:45:48;2.30;99.90
7192;DHT22;3637;51.494;11.958;2023-02-10T04:48:50;2.30;99.90
7192;DHT22;3637;51.494;11.958;2023-02-10T04:51:54;2.30;99.90
7192;DHT22;3637;51.494;11.958;2023-02-10T04:54:55;2.30;99.90
7192;DHT22;3637;51.494;11.958;2023-02-10T04:57:57;2.40;99.90
7192;DHT22;3637;51.494;11.958;2023-02-10T05:00:59;2.40;99.90
7192;DHT22;3637;51.494;11.958;2023-02-10T05:04:01;2.40;99.90
7192;DHT22;3637;51.494;11.958;2023-02-10T05:07:04;2.90;99.90
7192;DHT22;3637;51.494;11.958;2023-02-10T05:10:06;2.50;99.90
7192;DHT22;3637;51.494;11.958;2023-02-10T05:13:08;2.50;99.90
7192;DHT22;3637;51.494;11.958;2023-02-10T05:16:11;2.50;99.90
7192;DHT22;3637;51.494;11.958;2023-02-10T05:19:13;2.60;99.90
7192;DHT22;3637;51.494;11.958;2023-02-10T05:22:16;2.50;99.90
7192;DHT22;3637;51.494;11.958;2023-02-10T05:25:18;2.50;99.90
7192;DHT22;3637;51.494;11.958;2023-02-10T05:28:20;2.50;99.90
7192;DHT22;3637;51.494;11.958;2023-02-10T05:31:22;2.60;99.90
7192;DHT22;3637;51.494;11.958;2023-02-10T05:34:24;2.50;99.90
7192;DHT22;3637;51.494;11.958;2023-02-10T05:37:28;3.30;99.90
7192;DHT22;3637;51.494;11.958;2023-02-10T05:40:30;3.60;99.90
7192;DHT22;3637;51.494;11.958;2023-02-10T05:43:32;2.40;99.90
7192;DHT22;3637;51.494;11.958;2023-02-10T05:46:34;2.30;99.90
7192;DHT22;3637;51.494;11.958;2023-02-10T05:49:36;3.00;99.90
7192;DHT22;3637;51.494;11.958;2023-02-10T05:52:39;2.30;99.90
7192;DHT22;3637;51.494;11.958;2023-02-10T05:55:41;2.30;99.90
7192;DHT22;3637;51.494;11.958;2023-02-10T05:58:43;2.30;99.90
7192;DHT22;3637;51.494;11.958;2023-02-10T06:01:44;2.30;99.90
7192;DHT22;3637;51.494;11.958;2023-02-10T06:04:46;2.20;99.90
7192;DHT22;3637;51.494;11.958;2023-02-10T06:07:50;3.00;99.90
7192;DHT22;3637;51.494;11.958;2023-02-10T06:10:52;2.20;99.90
7192;DHT22;3637;51.494;11.958;2023-02-10T06:13:55;2.40;99.90
7192;DHT22;3637;51.494;11.958;2023-02-10T06:16:59;2.10;99.90
7192;DHT22;3637;51.494;11.958;2023-02-10T06:20:01;1.80;99.90
7192;DHT22;3637;51.494;11.958;2023-02-10T06:23:05;2.20;99.90
7192;DHT22;3637;51.494;11.958;2023-02-10T06:26:07;2.60;99.90
7192;DHT22;3637;51.494;11.958;2023-02-10T06:29:09;2.30;99.90
7192;DHT22;3637;51.494;11.958;2023-02-10T06:32:11;2.10;99.90
7192;DHT22;3637;51.494;11.958;2023-02-10T06:35:15;2.10;99.90
7192;DHT22;3637;51.494;11.958;2023-02-10T06:38:18;2.30;99.90
7192;DHT22;3637;51.494;11.958;2023-02-10T06:41:20;2.10;99.90
7192;DHT22;3637;51.494;11.958;2023-02-10T06:44:22;2.30;99.90
7192;DHT22;3637;51.494;11.958;2023-02-10T06:47:24;2.00;99.90
7192;DHT22;3637;51.494;11.958;2023-02-10T06:50:26;2.60;99.90
7192;DHT22;3637;51.494;11.958;2023-02-10T06:53:29;2.60;99.90
7192;DHT22;3637;51.494;11.958;2023-02-10T06:56:31;2.00;99.90
7192;DHT22;3637;51.494;11.958;2023-02-10T06:59:33;2.60;99.90
7192;DHT22;3637;51.494;11.958;2023-02-10T07:02:34;2.00;99.90
7192;DHT22;3637;51.494;11.958;2023-02-10T07:05:36;2.20;99.90
7192;DHT22;3637;51.494;11.958;2023-02-10T07:08:41;2.20;99.90
7192;DHT22;3637;51.494;11.958;2023-02-10T07:11:43;2.70;99.90
7192;DHT22;3637;51.494;11.958;2023-02-10T07:14:45;2.10;99.90
7192;DHT22;3637;51.494;11.958;2023-02-10T07:17:47;2.20;99.90
7192;DHT22;3637;51.494;11.958;2023-02-10T07:20:49;2.20;99.90
7192;DHT22;3637;51.494;11.958;2023-02-10T07:23:52;2.20;99.90
7192;DHT22;3637;51.494;11.958;2023-02-10T07:26:54;2.20;99.90
7192;DHT22;3637;51.494;11.958;2023-02-10T07:29:55;2.20;99.90
7192;DHT22;3637;51.494;11.958;2023-02-10T07:32:57;2.10;99.90
7192;DHT22;3637;51.494;11.958;2023-02-10T07:36:00;2.40;99.90
7192;DHT22;3637;51.494;11.958;2023-02-10T07:39:04;2.30;99.90
7192;DHT22;3637;51.494;11.958;2023-02-10T07:42:06;2.10;99.90
7192;DHT22;3637;51.494;11.958;2023-02-10T07:45:08;2.20;99.90
7192;DHT22;3637;51.494;11.958;2023-02-10T07:48:10;2.10;99.90
7192;DHT22;3637;51.494;11.958;2023-02-10T07:51:12;2.10;99.90
7192;DHT22;3637;51.494;11.958;2023-02-10T07:54:15;2.20;99.90
7192;DHT22;3637;51.494;11.958;2023-02-10T07:57:17;2.40;99.90
7192;DHT22;3637;51.494;11.958;2023-02-10T08:00:20;2.40;99.90
7192;DHT22;3637;51.494;11.958;2023-02-10T08:03:22;2.50;99.90
7192;DHT22;3637;51.494;11.958;2023-02-10T08:06:25;2.60;99.90
7192;DHT22;3637;51.494;11.958;2023-02-10T08:09:29;2.70;99.90
7192;DHT22;3637;51.494;11.958;2023-02-10T08:12:31;2.80;99.90
7192;DHT22;3637;51.494;11.958;2023-02-10T08:15:33;3.10;99.90
7192;DHT22;3637;51.494;11.958;2023-02-10T08:18:35;3.10;99.90
7192;DHT22;3637;51.494;11.958;2023-02-10T08:21:37;3.10;99.90
7192;DHT22;3637;51.494;11.958;2023-02-10T08:24:40;3.20;99.90
7192;DHT22;3637;51.494;11.958;2023-02-10T08:27:42;3.20;99.90
7192;DHT22;3637;51.494;11.958;2023-02-10T08:30:44;3.20;99.90
7192;DHT22;3637;51.494;11.958;2023-02-10T08:33:47;3.20;99.90
7192;DHT22;3637;51.494;11.958;2023-02-10T08:36:48;3.20;99.90
7192;DHT22;3637;51.494;11.958;2023-02-10T08:39:52;3.20;99.90
7192;DHT22;3637;51.494;11.958;2023-02-10T08:42:54;3.90;99.90
7192;DHT22;3637;51.494;11.958;2023-02-10T08:45:56;3.20;99.90
7192;DHT22;3637;51.494;11.958;2023-02-10T08:48:58;3.20;99.90
7192;DHT22;3637;51.494;11.958;2023-02-10T08:52:01;3.20;99.90
7192;DHT22;3637;51.494;11.958;2023-02-10T08:55:05;3.30;99.90
7192;DHT22;3637;51.494;11.958;2023-02-10T08:58:08;3.40;99.90
7192;DHT22;3637;51.494;11.958;2023-02-10T09:01:10;4.20;99.90
7192;DHT22;3637;51.494;11.958;2023-02-10T09:04:12;3.60;99.90
7192;DHT22;3637;51.494;11.958;2023-02-10T09:07:14;5.10;99.90
7192;DHT22;3637;51.494;11.958;2023-02-10T09:10:18;4.10;99.90
7192;DHT22;3637;51.494;11.958;2023-02-10T09:13:20;3.80;99.90
7192;DHT22;3637;51.494;11.958;2023-02-10T09:16:22;3.80;99.90
7192;DHT22;3637;51.494;11.958;2023-02-10T09:19:24;4.50;99.90
7192;DHT22;3637;51.494;11.958;2023-02-10T09:22:26;3.90;99.90
7192;DHT22;3637;51.494;11.958;2023-02-10T09:25:30;3.90;99.90
7192;DHT22;3637;51.494;11.958;2023-02-10T09:28:31;4.00;99.90
7192;DHT22;3637;51.494;11.958;2023-02-10T09:31:33;4.00;99.90
7192;DHT22;3637;51.494;11.958;2023-02-10T09:34:35;4.20;99.90
7192;DHT22;3637;51.494;11.958;2023-02-10T09:37:37;4.00;99.90
7192;DHT22;3637;51.494;11.958;2023-02-10T09:40:48;4.10;99.90
7192;DHT22;3637;51.494;11.958;2023-02-10T09:44:04;4.10;99.90
7192;DHT22;3637;51.494;11.958;2023-02-10T09:47:36;4.20;99.90
7192;DHT22;3637;51.494;11.958;2023-02-10T09:50:47;4.10;99.90
7192;DHT22;3637;51.494;11.958;2023-02-10T09:53:52;4.20;99.90
7192;DHT22;3637;51.494;11.958;2023-02-10T09:56:55;4.20;99.90
7192;DHT22;3637;51.494;11.958;2023-02-10T09:59:58;4.70;99.90
7192;DHT22;3637;51.494;11.958;2023-02-10T10:03:03;4.20;99.90
7192;DHT22;3637;51.494;11.958;2023-02-10T10:06:13;4.20;99.90
7192;DHT22;3637;51.494;11.958;2023-02-10T10:09:23;5.00;99.90
7192;DHT22;3637;51.494;11.958;2023-02-10T10:12:30;4.80;99.90
7192;DHT22;3637;51.494;11.958;2023-02-10T10:15:37;4.90;99.90
7192;DHT22;3637;51.494;11.958;2023-02-10T10:18:51;4.20;99.90
7192;DHT22;3637;51.494;11.958;2023-02-10T10:22:03;4.30;99.90
7192;DHT22;3637;51.494;11.958;2023-02-10T10:25:31;4.20;99.90
7192;DHT22;3637;51.494;11.958;2023-02-10T10:28:50;4.30;99.90
7192;DHT22;3637;51.494;11.958;2023-02-10T10:32:00;4.40;99.90
7192;DHT22;3637;51.494;11.958;2023-02-10T10:35:15;4.20;99.90
7192;DHT22;3637;51.494;11.958;2023-02-10T10:38:21;4.40;99.90
7192;DHT22;3637;51.494;11.958;2023-02-10T10:41:26;4.50;99.90
7192;DHT22;3637;51.494;11.958;2023-02-10T10:44:30;4.50;99.90
7192;DHT22;3637;51.494;11.958;2023-02-10T10:47:40;4.40;99.90
7192;DHT22;3637;51.494;11.958;2023-02-10T10:50:43;4.30;99.90
7192;DHT22;3637;51.494;11.958;2023-02-10T10:53:47;4.50;99.90
7192;DHT22;3637;51.494;11.958;2023-02-10T10:56:53;4.60;99.90
7192;DHT22;3637;51.494;11.958;2023-02-10T11:00:04;4.60;99.90
7192;DHT22;3637;51.494;11.958;2023-02-10T11:03:15;5.10;99.90
7192;DHT22;3637;51.494;11.958;2023-02-10T11:06:18;4.60;99.90
7192;DHT22;3637;51.494;11.958;2023-02-10T11:09:22;4.40;99.90
7192;DHT22;3637;51.494;11.958;2023-02-10T11:12:28;4.40;99.90
7192;DHT22;3637;51.494;11.958;2023-02-10T11:15:38;4.80;99.90
7192;DHT22;3637;51.494;11.958;2023-02-10T11:18:51;4.90;99.90
7192;DHT22;3637;51.494;11.958;2023-02-10T11:21:54;4.60;99.90
7192;DHT22;3637;51.494;11.958;2023-02-10T11:24:57;4.60;99.90
7192;DHT22;3637;51.494;11.958;2023-02-10T11:28:01;4.60;99.90
7192;DHT22;3637;51.494;11.958;2023-02-10T11:31:16;4.70;99.90
7192;DHT22;3637;51.494;11.958;2023-02-10T11:34:25;4.70;99.90
7192;DHT22;3637;51.494;11.958;2023-02-10T11:37:29;4.40;99.90
7192;DHT22;3637;51.494;11.958;2023-02-10T11:40:47;4.90;99.90
7192;DHT22;3637;51.494;11.958;2023-02-10T11:43:50;4.90;99.90
7192;DHT22;3637;51.494;11.958;2023-02-10T11:47:00;4.90;99.90
7192;DHT22;3637;51.494;11.958;2023-02-10T11:50:04;4.80;99.90
7192;DHT22;3637;51.494;11.958;2023-02-10T11:53:24;4.80;99.90
7192;DHT22;3637;51.494;11.958;2023-02-10T11:56:32;4.90;99.90
7192;DHT22;3637;51.494;11.958;2023-02-10T12:00:00;4.90;99.90
7192;DHT22;3637;51.494;11.958;2023-02-10T12:03:28;5.20;99.90
7192;DHT22;3637;51.494;11.958;2023-02-10T12:06:38;4.90;99.90
7192;DHT22;3637;51.494;11.958;2023-02-10T12:09:48;4.90;99.90
7192;DHT22;3637;51.494;11.958;2023-02-10T12:13:01;5.60;99.90
7192;DHT22;3637;51.494;11.958;2023-02-10T12:16:15;5.20;99.90
7192;DHT22;3637;51.494;11.958;2023-02-10T12:19:32;5.60;99.90
7192;DHT22;3637;51.494;11.958;2023-02-10T12:22:53;5.60;99.90
7192;DHT22;3637;51.494;11.958;2023-02-10T12:26:03;5.50;99.90
7192;DHT22;3637;51.494;11.958;2023-02-10T12:29:19;5.50;99.90
7192;DHT22;3637;51.494;11.958;2023-02-10T12:32:30;5.60;99.90
7192;DHT22;3637;51.494;11.958;2023-02-10T12:35:42;5.60;99.90
7192;DHT22;3637;51.494;11.958;2023-02-10T12:39:03;5.70;99.90
7192;DHT22;3637;51.494;11.958;2023-02-10T12:42:20;6.00;99.90
7192;DHT22;3637;51.494;11.958;2023-02-10T12:45:31;5.90;99.90
7192;DHT22;3637;51.494;11.958;2023-02-10T12:48:39;5.80;99.90
7192;DHT22;3637;51.494;11.958;2023-02-10T12:51:57;5.80;99.90
7192;DHT22;3637;51.494;11.958;2023-02-10T12:55:04;6.00;99.90
7192;DHT22;3637;51.494;11.958;2023-02-10T12:58:14;7.00;99.90
7192;DHT22;3637;51.494;11.958;2023-02-10T13:01:23;5.90;99.90
7192;DHT22;3637;51.494;11.958;2023-02-10T13:04:30;5.90;99.90
7192;DHT22;3637;51.494;11.958;2023-02-10T13:07:42;6.20;99.90
7192;DHT22;3637;51.494;11.958;2023-02-10T13:10:49;5.90;99.90
7192;DHT22;3637;51.494;11.958;2023-02-10T13:13:52;5.90;99.90
7192;DHT22;3637;51.494;11.958;2023-02-10T13:16:57;5.70;99.90
7192;DHT22;3637;51.494;11.958;2023-02-10T13:20:02;6.50;99.90
7192;DHT22;3637;51.494;11.958;2023-02-10T13:23:17;6.30;99.90
7192;DHT22;3637;51.494;11.958;2023-02-10T13:26:38;5.60;99.90
7192;DHT22;3637;51.494;11.958;2023-02-10T13:29:50;6.00;99.90
7192;DHT22;3637;51.494;11.958;2023-02-10T13:33:03;6.00;99.90
7192;DHT22;3637;51.494;11.958;2023-02-10T13:36:14;5.70;99.90
7192;DHT22;3637;51.494;11.958;2023-02-10T13:39:20;6.10;99.90
7192;DHT22;3637;51.494;11.958;2023-02-10T13:42:25;6.00;99.90
7192;DHT22;3637;51.494;11.958;2023-02-10T13:45:29;5.10;99.90
7192;DHT22;3637;51.494;11.958;2023-02-10T13:48:33;6.50;99.90
7192;DHT22;3637;51.494;11.958;2023-02-10T13:51:37;5.80;99.90
7192;DHT22;3637;51.494;11.958;2023-02-10T13:54:41;5.90;99.90
7192;DHT22;3637;51.494;11.958;2023-02-10T13:57:57;5.90;99.90
7192;DHT22;3637;51.494;11.958;2023-02-10T14:01:00;6.40;99.90
7192;DHT22;3637;51.494;11.958;2023-02-10T14:04:02;6.10;99.90
7192;DHT22;3637;51.494;11.958;2023-02-10T14:07:14;6.90;99.90
7192;DHT22;3637;51.494;11.958;2023-02-10T14:10:32;6.10;99.90
7192;DHT22;3637;51.494;11.958;2023-02-10T14:13:35;6.20;99.90
7192;DHT22;3637;51.494;11.958;2023-02-10T14:16:39;6.30;99.90
7192;DHT22;3637;51.494;11.958;2023-02-10T14:19:44;6.30;99.90
7192;DHT22;3637;51.494;11.958;2023-02-10T14:22:50;6.30;99.90
7192;DHT22;3637;51.494;11.958;2023-02-10T14:25:59;5.80;99.90
7192;DHT22;3637;51.494;11.958;2023-02-10T14:29:02;6.40;99.90
7192;DHT22;3637;51.494;11.958;2023-02-10T14:32:07;6.50;99.90
7192;DHT22;3637;51.494;11.958;2023-02-10T14:35:16;6.50;99.90
7192;DHT22;3637;51.494;11.958;2023-02-10T14:38:22;6.40;99.90
7192;DHT22;3637;51.494;11.958;2023-02-10T14:41:29;6.40;99.90
7192;DHT22;3637;51.494;11.958;2023-02-10T14:44:36;6.10;99.90
7192;DHT22;3637;51.494;11.958;2023-02-10T14:47:43;5.90;99.90
7192;DHT22;3637;51.494;11.958;2023-02-10T14:50:56;5.80;99.90
7192;DHT22;3637;51.494;11.958;2023-02-10T14:54:08;5.90;99.90
7192;DHT22;3637;51.494;11.958;2023-02-10T14:57:12;6.60;99.90
7192;DHT22;3637;51.494;11.958;2023-02-10T15:00:15;6.30;99.90
7192;DHT22;3637;51.494;11.958;2023-02-10T15:03:17;5.70;99.90
7192;DHT22;3637;51.494;11.958;2023-02-10T15:06:21;5.60;99.90
7192;DHT22;3637;51.494;11.958;2023-02-10T15:09:27;6.10;99.90
7192;DHT22;3637;51.494;11.958;2023-02-10T15:12:31;5.90;99.90
7192;DHT22;3637;51.494;11.958;2023-02-10T15:15:37;5.60;99.90
7192;DHT22;3637;51.494;11.958;2023-02-10T15:18:41;6.00;99.90
7192;DHT22;3637;51.494;11.958;2023-02-10T15:21:47;5.60;99.90
7192;DHT22;3637;51.494;11.958;2023-02-10T15:24:49;5.60;99.90
7192;DHT22;3637;51.494;11.958;2023-02-10T15:27:53;5.60;99.90
7192;DHT22;3637;51.494;11.958;2023-02-10T15:31:00;5.60;99.90
7192;DHT22;3637;51.494;11.958;2023-02-10T15:34:15;5.40;99.90
7192;DHT22;3637;51.494;11.958;2023-02-10T15:37:20;5.50;99.90
7192;DHT22;3637;51.494;11.958;2023-02-10T15:40:25;6.30;99.90
7192;DHT22;3637;51.494;11.958;2023-02-10T15:43:29;5.40;99.90
7192;DHT22;3637;51.494;11.958;2023-02-10T15:46:32;5.40;99.90
7192;DHT22;3637;51.494;11.958;2023-02-10T15:49:34;5.60;99.90
7192;DHT22;3637;51.494;11.958;2023-02-10T15:52:39;5.40;99.90
7192;DHT22;3637;51.494;11.958;2023-02-10T15:55:41;5.40;99.90
7192;DHT22;3637;51.494;11.958;2023-02-10T15:58:45;6.10;99.90
7192;DHT22;3637;51.494;11.958;2023-02-10T16:01:46;5.30;99.90
7192;DHT22;3637;51.494;11.958;2023-02-10T16:04:48;5.20;99.90
7192;DHT22;3637;51.494;11.958;2023-02-10T16:07:50;5.20;99.90
7192;DHT22;3637;51.494;11.958;2023-02-10T16:10:52;5.10;99.90
7192;DHT22;3637;51.494;11.958;2023-02-10T16:13:56;5.00;99.90
7192;DHT22;3637;51.494;11.958;2023-02-10T16:16:59;4.90;99.90
7192;DHT22;3637;51.494;11.958;2023-02-10T16:20:01;4.90;99.90
7192;DHT22;3637;51.494;11.958;2023-02-10T16:23:07;4.90;99.90
7192;DHT22;3637;51.494;11.958;2023-02-10T16:26:21;5.40;99.90
7192;DHT22;3637;51.494;11.958;2023-02-10T16:29:26;4.80;99.90
7192;DHT22;3637;51.494;11.958;2023-02-10T16:32:28;4.80;99.90
7192;DHT22;3637;51.494;11.958;2023-02-10T16:35:29;5.30;99.90
7192;DHT22;3637;51.494;11.958;2023-02-10T16:38:31;4.80;99.90
7192;DHT22;3637;51.494;11.958;2023-02-10T16:41:34;4.80;99.90
7192;DHT22;3637;51.494;11.958;2023-02-10T16:44:37;4.70;99.90
7192;DHT22;3637;51.494;11.958;2023-02-10T16:47:39;5.10;99.90
7192;DHT22;3637;51.494;11.958;2023-02-10T16:50:42;4.60;99.90
7192;DHT22;3637;51.494;11.958;2023-02-10T16:53:44;4.50;99.90
7192;DHT22;3637;51.494;11.958;2023-02-10T16:56:46;4.40;99.90
7192;DHT22;3637;51.494;11.958;2023-02-10T16:59:49;4.50;99.90
7192;DHT22;3637;51.494;11.958;2023-02-10T17:02:51;4.40;99.90
7192;DHT22;3637;51.494;11.958;2023-02-10T17:05:53;4.40;99.90
7192;DHT22;3637;51.494;11.958;2023-02-10T17:08:55;4.30;99.90
7192;DHT22;3637;51.494;11.958;2023-02-10T17:11:57;4.30;99.90
7192;DHT22;3637;51.494;11.958;2023-02-10T17:15:00;4.30;99.90
7192;DHT22;3637;51.494;11.958;2023-02-10T17:18:03;4.30;99.90
7192;DHT22;3637;51.494;11.958;2023-02-10T17:21:05;4.20;99.90
7192;DHT22;3637;51.494;11.958;2023-02-10T17:24:07;4.20;99.90
7192;DHT22;3637;51.494;11.958;2023-02-10T17:27:10;4.20;99.90
7192;DHT22;3637;51.494;11.958;2023-02-10T17:30:16;4.40;99.90
7192;DHT22;3637;51.494;11.958;2023-02-10T17:33:23;4.10;99.90
7192;DHT22;3637;51.494;11.958;2023-02-10T17:36:26;4.20;99.90
7192;DHT22;3637;51.494;11.958;2023-02-10T17:39:29;4.20;99.90
7192;DHT22;3637;51.494;11.958;2023-02-10T17:42:36;3.90;99.90
7192;DHT22;3637;51.494;11.958;2023-02-10T17:45:39;3.90;99.90
7192;DHT22;3637;51.494;11.958;2023-02-10T17:48:41;3.50;99.90
7192;DHT22;3637;51.494;11.958;2023-02-10T17:52:06;3.70;99.90
7192;DHT22;3637;51.494;11.958;2023-02-10T17:58:38;3.70;99.90
7192;DHT22;3637;51.494;11.958;2023-02-10T18:01:51;3.50;99.90
7192;DHT22;3637;51.494;11.958;2023-02-10T18:05:00;3.70;99.90
7192;DHT22;3637;51.494;11.958;2023-02-10T18:11:29;3.80;99.90
7192;DHT22;3637;51.494;11.958;2023-02-10T18:14:34;3.30;99.90
7192;DHT22;3637;51.494;11.958;2023-02-10T18:17:38;3.70;99.90
7192;DHT22;3637;51.494;11.958;2023-02-10T18:20:45;4.40;99.90
7192;DHT22;3637;51.494;11.958;2023-02-10T18:24:18;3.70;99.90
7192;DHT22;3637;51.494;11.958;2023-02-10T18:27:36;3.70;99.90
7192;DHT22;3637;51.494;11.958;2023-02-10T18:30:38;4.10;99.90
7192;DHT22;3637;51.494;11.958;2023-02-10T18:33:50;4.10;99.90
7192;DHT22;3637;51.494;11.958;2023-02-10T18:36:56;3.80;99.90
7192;DHT22;3637;51.494;11.958;2023-02-10T18:49:31;3.70;99.90
7192;DHT22;3637;51.494;11.958;2023-02-10T18:52:33;4.10;99.90
7192;DHT22;3637;51.494;11.958;2023-02-10T18:59:02;3.70;99.90
7192;DHT22;3637;51.494;11.958;2023-02-10T19:02:09;3.60;99.90
7192;DHT22;3637;51.494;11.958;2023-02-10T19:05:18;3.80;99.90
7192;DHT22;3637;51.494;11.958;2023-02-10T19:18:31;3.80;99.90
7192;DHT22;3637;51.494;11.958;2023-02-10T19:21:34;4.00;99.90
7192;DHT22;3637;51.494;11.958;2023-02-10T19:24:40;3.90;99.90
7192;DHT22;3637;51.494;11.958;2023-02-10T19:27:42;3.60;99.90
7192;DHT22;3637;51.494;11.958;2023-02-10T19:30:43;3.60;99.90
7192;DHT22;3637;51.494;11.958;2023-02-10T19:33:45;3.60;99.90
7192;DHT22;3637;51.494;11.958;2023-02-10T19:36:51;3.60;99.90
7192;DHT22;3637;51.494;11.958;2023-02-10T19:40:01;3.50;99.90
7192;DHT22;3637;51.494;11.958;2023-02-10T19:43:07;3.40;99.90
7192;DHT22;3637;51.494;11.958;2023-02-10T19:46:09;4.20;99.90
7192;DHT22;3637;51.494;11.958;2023-02-10T19:49:12;3.90;99.90
7192;DHT22;3637;51.494;11.958;2023-02-10T19:52:16;3.50;99.90
7192;DHT22;3637;51.494;11.958;2023-02-10T19:55:18;4.00;99.90
7192;DHT22;3637;51.494;11.958;2023-02-10T19:58:20;3.70;99.90
7192;DHT22;3637;51.494;11.958;2023-02-10T20:01:23;4.10;99.90
7192;DHT22;3637;51.494;11.958;2023-02-10T20:04:25;3.50;99.90
7192;DHT22;3637;51.494;11.958;2023-02-10T20:07:43;3.50;99.90
7192;DHT22;3637;51.494;11.958;2023-02-10T20:10:52;3.50;99.90
7192;DHT22;3637;51.494;11.958;2023-02-10T20:14:00;3.50;99.90
7192;DHT22;3637;51.494;11.958;2023-02-10T20:17:15;4.70;99.90
7192;DHT22;3637;51.494;11.958;2023-02-10T20:23:50;3.50;99.90
7192;DHT22;3637;51.494;11.958;2023-02-10T20:26:58;3.80;99.90
7192;DHT22;3637;51.494;11.958;2023-02-10T20:33:26;3.40;99.90
7192;DHT22;3637;51.494;11.958;2023-02-10T20:36:33;3.40;99.90
7192;DHT22;3637;51.494;11.958;2023-02-10T20:39:53;4.80;99.90
7192;DHT22;3637;51.494;11.958;2023-02-10T20:42:56;4.30;99.90
7192;DHT22;3637;51.494;11.958;2023-02-10T20:46:12;3.70;99.90
7192;DHT22;3637;51.494;11.958;2023-02-10T20:49:15;3.50;99.90